Time;durP1;ratioP1;P1;durP2;ratioP2;P2;SDS_P1;SDS_P2;PMS_P1;PMS_P2;Temp;Humidity;BMP_temperature;BMP_pressure;BME280_temperature;BME280_humidity;BME280_pressure;Samples;Min_cycle;Max_cycle;Signal;HPM_P1;HPM_P2
2023/01/10 00:00:22;;;;;;;6.03;1.80;;;6.40;87.00;;;;;;5038772;28;20056;-61
2023/01/10 00:02:50;;;;;;;2.42;1.13;;;6.50;86.80;;;;;;5037486;28;20079;-60
2023/01/10 00:05:18;;;;;;;3.45;1.02;;;6.50;86.90;;;;;;5034864;28;20049;-61
2023/01/10 00:07:51;;;;;;;3.55;1.05;;;6.40;86.90;;;;;;5037149;28;20052;-61
2023/01/10 00:10:18;;;;;;;2.78;0.80;;;6.50;86.80;;;;;;5034224;28;20052;-60
2023/01/10 00:15:38;;;;;;;2.42;0.85;;;6.50;86.80;;;;;;5036653;28;20089;-60
2023/01/10 00:18:05;;;;;;;4.03;0.95;;;6.50;87.00;;;;;;5044226;28;20044;-60
2023/01/10 00:20:32;;;;;;;2.50;0.80;;;6.50;87.00;;;;;;5047895;28;20483;-60
2023/01/10 00:22:59;;;;;;;3.42;0.90;;;6.40;87.10;;;;;;5044753;28;20049;-60
2023/01/10 00:25:26;;;;;;;3.03;1.13;;;6.50;87.20;;;;;;5048063;28;20081;-60
2023/01/10 00:28:01;;;;;;;5.15;1.13;;;6.50;87.10;;;;;;5051113;28;20056;-61
2023/01/10 00:30:28;;;;;;;4.95;1.10;;;6.40;87.20;;;;;;5040822;28;20049;-59
2023/01/10 00:32:55;;;;;;;3.80;0.95;;;6.50;87.20;;;;;;5042431;28;20048;-58
2023/01/10 00:35:22;;;;;;;3.53;1.15;;;6.50;87.10;;;;;;5045162;28;20136;-61
2023/01/10 00:37:50;;;;;;;2.42;0.75;;;6.50;87.30;;;;;;5047816;28;20049;-61
2023/01/10 00:40:18;;;;;;;4.40;1.23;;;6.50;87.20;;;;;;5051802;28;20136;-61
2023/01/10 00:45:30;;;;;;;4.00;0.85;;;6.50;87.20;;;;;;5051257;28;20452;-61
2023/01/10 00:47:57;;;;;;;4.85;1.48;;;6.50;87.10;;;;;;5050384;28;20525;-59
2023/01/10 00:50:24;;;;;;;2.47;0.90;;;6.50;87.10;;;;;;5053724;28;20102;-60
2023/01/10 00:52:51;;;;;;;5.20;1.23;;;6.50;87.10;;;;;;5047453;28;20045;-61
2023/01/10 00:55:18;;;;;;;3.53;1.08;;;6.60;86.90;;;;;;5036161;28;20067;-61
2023/01/10 00:57:45;;;;;;;3.63;0.98;;;6.50;86.90;;;;;;5041443;28;20053;-59
2023/01/10 01:00:13;;;;;;;4.32;1.13;;;6.60;86.90;;;;;;5040627;28;20060;-60
2023/01/10 01:02:41;;;;;;;4.75;1.30;;;6.60;86.80;;;;;;5038032;28;20053;-60
2023/01/10 01:05:09;;;;;;;2.03;0.75;;;6.60;86.80;;;;;;5030797;28;20099;-61
2023/01/10 01:07:36;;;;;;;3.22;0.85;;;6.60;86.80;;;;;;5039201;28;20053;-61
2023/01/10 01:12:47;;;;;;;3.60;1.17;;;6.60;86.70;;;;;;5055864;28;20127;-60
2023/01/10 01:15:13;;;;;;;4.10;1.60;;;6.50;86.80;;;;;;5044043;28;20617;-61
2023/01/10 01:17:42;;;;;;;4.80;1.70;;;6.60;86.80;;;;;;5037747;28;20053;-61
2023/01/10 01:20:10;;;;;;;3.90;1.42;;;6.60;86.70;;;;;;5037778;28;20100;-61
2023/01/10 01:22:37;;;;;;;5.55;1.50;;;6.60;86.70;;;;;;5040856;28;20052;-61
2023/01/10 01:25:04;;;;;;;3.75;1.10;;;6.50;86.70;;;;;;5037984;28;20049;-61
2023/01/10 01:27:33;;;;;;;4.90;1.42;;;6.60;86.70;;;;;;5041276;28;20057;-61
2023/01/10 01:30:00;;;;;;;5.85;1.23;;;6.50;86.80;;;;;;5040046;28;20476;-61
2023/01/10 01:32:29;;;;;;;3.20;1.00;;;6.50;86.90;;;;;;5042551;28;20514;-61
2023/01/10 01:34:57;;;;;;;1.75;1.00;;;6.60;86.70;;;;;;5038713;28;20056;-60
2023/01/10 01:37:24;;;;;;;2.17;1.00;;;6.50;86.70;;;;;;5040146;28;20045;-60
2023/01/10 01:39:51;;;;;;;4.30;0.90;;;6.50;86.70;;;;;;5038625;28;20050;-61
2023/01/10 01:42:25;;;;;;;2.25;0.80;;;6.50;86.70;;;;;;5042169;28;20044;-69
2023/01/10 01:45:33;;;;;;;2.97;1.33;;;6.50;86.70;;;;;;5036765;28;20081;-70
2023/01/10 01:48:17;;;;;;;1.98;0.90;;;6.50;86.70;;;;;;5022748;28;20076;-68
2023/01/10 01:50:51;;;;;;;3.65;0.80;;;6.50;86.70;;;;;;5041883;28;20140;-69
2023/01/10 01:53:22;;;;;;;3.33;1.10;;;6.50;86.60;;;;;;5031865;28;20052;-69
2023/01/10 01:55:53;;;;;;;2.20;0.90;;;6.50;86.60;;;;;;5035259;28;20423;-70
2023/01/10 01:58:28;;;;;;;2.20;0.85;;;6.50;86.60;;;;;;5041091;28;20044;-69
2023/01/10 02:00:57;;;;;;;3.70;1.02;;;6.50;86.70;;;;;;5036259;28;20136;-62
2023/01/10 02:03:24;;;;;;;2.63;0.85;;;6.50;86.70;;;;;;5036269;28;20163;-62
2023/01/10 02:05:53;;;;;;;2.53;0.88;;;6.50;86.60;;;;;;5034278;28;20056;-63
2023/01/10 02:08:20;;;;;;;3.95;0.93;;;6.50;86.70;;;;;;5037551;28;20055;-62
2023/01/10 02:10:53;;;;;;;2.20;0.80;;;6.50;87.00;;;;;;5034333;28;20412;-63
2023/01/10 02:13:24;;;;;;;1.88;0.70;;;6.50;87.00;;;;;;5038176;28;20045;-63
2023/01/10 02:15:51;;;;;;;3.30;0.90;;;6.60;86.90;;;;;;5039591;28;20416;-62
2023/01/10 02:18:20;;;;;;;2.28;0.63;;;6.50;86.60;;;;;;5036224;28;20052;-62
2023/01/10 02:21:18;;;;;;;2.63;0.88;;;6.60;86.80;;;;;;5039512;28;20500;-62
2023/01/10 02:24:18;;;;;;;4.13;0.88;;;6.50;86.70;;;;;;5036980;28;20108;-62
2023/01/10 02:27:22;;;;;;;2.67;0.82;;;6.50;86.60;;;;;;5033671;28;20057;-62
2023/01/10 02:30:31;;;;;;;2.10;0.90;;;6.50;86.80;;;;;;4991276;28;20132;-62
2023/01/10 02:33:07;;;;;;;2.25;1.00;;;6.50;86.80;;;;;;5045008;28;20484;-63
2023/01/10 02:35:50;;;;;;;4.53;0.93;;;6.50;86.80;;;;;;5046841;28;20057;-63
2023/01/10 02:38:25;;;;;;;2.53;0.98;;;6.40;87.00;;;;;;5047417;28;20123;-63
2023/01/10 02:40:59;;;;;;;2.22;0.80;;;6.40;87.00;;;;;;5028492;28;20053;-63
2023/01/10 02:43:34;;;;;;;5.00;1.00;;;6.40;87.10;;;;;;5039241;28;20049;-62
2023/01/10 02:46:05;;;;;;;2.42;0.85;;;6.40;87.30;;;;;;5038633;28;20049;-63
2023/01/10 02:48:34;;;;;;;4.15;1.13;;;6.40;87.30;;;;;;5039375;28;20053;-62
2023/01/10 02:51:04;;;;;;;3.85;0.93;;;6.40;87.30;;;;;;5038269;28;20060;-60
2023/01/10 02:53:35;;;;;;;2.58;1.00;;;6.40;87.10;;;;;;5041222;28;20072;-62
2023/01/10 02:56:39;;;;;;;1.77;0.90;;;6.40;87.20;;;;;;5040268;28;20041;-61
2023/01/10 02:59:33;;;;;;;2.38;0.98;;;6.40;87.30;;;;;;5040813;28;20122;-60
2023/01/10 03:02:07;;;;;;;5.53;1.38;;;6.50;87.10;;;;;;5039711;28;20049;-60
2023/01/10 03:04:47;;;;;;;2.88;1.00;;;6.40;87.10;;;;;;5040202;28;20041;-61
2023/01/10 03:07:26;;;;;;;2.13;0.73;;;6.50;87.00;;;;;;5039238;28;20037;-60
2023/01/10 03:09:58;;;;;;;1.73;0.80;;;6.40;87.00;;;;;;5040801;28;20063;-61
2023/01/10 03:12:31;;;;;;;5.22;1.00;;;6.40;87.00;;;;;;5040567;28;20416;-60
2023/01/10 03:15:00;;;;;;;3.13;1.25;;;6.50;87.00;;;;;;5040936;28;20053;-61
2023/01/10 03:17:30;;;;;;;3.95;1.30;;;6.40;86.90;;;;;;5041972;28;20061;-60
2023/01/10 03:20:03;;;;;;;5.43;1.02;;;6.50;86.90;;;;;;5041617;28;20412;-60
2023/01/10 03:22:33;;;;;;;3.25;1.05;;;6.40;87.00;;;;;;5040734;28;20769;-61
2023/01/10 03:25:03;;;;;;;1.48;0.75;;;6.40;87.10;;;;;;5039877;28;20545;-60
2023/01/10 03:27:38;;;;;;;3.35;1.10;;;6.40;87.10;;;;;;5040399;28;20407;-61
2023/01/10 03:30:12;;;;;;;1.60;0.90;;;6.40;87.10;;;;;;5050945;28;20052;-61
2023/01/10 03:32:40;;;;;;;2.55;1.00;;;6.40;87.20;;;;;;5040669;28;20048;-61
2023/01/10 03:35:11;;;;;;;2.08;1.10;;;6.40;86.90;;;;;;5049787;28;20455;-60
2023/01/10 03:37:46;;;;;;;3.13;1.17;;;6.40;86.90;;;;;;5047000;28;20045;-61
2023/01/10 03:40:21;;;;;;;3.63;1.20;;;6.40;86.90;;;;;;5044613;28;20041;-61
2023/01/10 03:45:44;;;;;;;7.78;1.65;;;6.40;87.00;;;;;;5039026;28;20052;-63
2023/01/10 03:48:15;;;;;;;3.95;1.20;;;6.40;86.80;;;;;;5038815;28;20041;-62
2023/01/10 03:50:44;;;;;;;2.67;1.02;;;6.50;87.00;;;;;;5044749;28;20076;-62
2023/01/10 03:53:12;;;;;;;3.15;1.23;;;6.40;87.10;;;;;;5043812;28;21246;-62
2023/01/10 03:55:41;;;;;;;4.32;1.38;;;6.50;87.20;;;;;;5043038;28;22212;-59
2023/01/10 03:58:08;;;;;;;1.57;1.00;;;6.50;87.10;;;;;;5042104;28;20053;-58
2023/01/10 04:00:36;;;;;;;2.65;1.20;;;6.50;87.20;;;;;;5038501;28;21803;-61
2023/01/10 04:03:03;;;;;;;5.78;1.50;;;6.50;87.10;;;;;;5049324;28;20477;-60
2023/01/10 04:05:30;;;;;;;3.58;1.30;;;6.40;87.40;;;;;;5043142;28;20646;-61
2023/01/10 04:07:58;;;;;;;3.97;1.40;;;6.40;87.30;;;;;;5043427;28;20078;-61
2023/01/10 04:10:26;;;;;;;4.10;1.33;;;6.40;87.30;;;;;;5042564;28;20102;-60
2023/01/10 04:12:52;;;;;;;2.42;1.20;;;6.40;87.50;;;;;;5043633;28;20488;-60
2023/01/10 04:15:19;;;;;;;2.63;1.17;;;6.50;87.30;;;;;;5040440;28;20049;-63
2023/01/10 04:17:47;;;;;;;4.53;1.27;;;6.50;87.20;;;;;;5035850;28;20393;-62
2023/01/10 04:20:14;;;;;;;2.67;1.30;;;6.40;87.30;;;;;;5042193;28;20420;-64
2023/01/10 04:22:41;;;;;;;3.13;1.27;;;6.40;87.20;;;;;;5042098;28;20518;-63
2023/01/10 04:25:10;;;;;;;4.80;1.38;;;6.40;87.20;;;;;;5046735;28;20060;-64
2023/01/10 04:27:37;;;;;;;2.28;1.10;;;6.40;87.10;;;;;;5053456;28;20056;-63
2023/01/10 04:30:05;;;;;;;4.07;1.45;;;6.40;87.10;;;;;;5055133;28;20474;-62
2023/01/10 04:32:31;;;;;;;4.53;1.30;;;6.40;87.00;;;;;;5053908;28;20137;-64
2023/01/10 04:34:58;;;;;;;3.50;1.35;;;6.40;87.10;;;;;;5049039;28;20052;-62
2023/01/10 04:37:25;;;;;;;4.00;1.17;;;6.40;87.20;;;;;;5050034;28;20053;-62
2023/01/10 04:39:52;;;;;;;2.70;1.40;;;6.40;87.10;;;;;;5050901;28;20053;-62
2023/01/10 04:42:20;;;;;;;3.35;1.15;;;6.30;87.20;;;;;;5053386;28;20060;-58
2023/01/10 04:44:47;;;;;;;2.72;1.20;;;6.30;87.20;;;;;;5051710;28;20368;-59
2023/01/10 04:47:14;;;;;;;1.85;0.90;;;6.20;87.20;;;;;;5051599;28;20049;-59
2023/01/10 04:49:41;;;;;;;7.07;1.60;;;6.20;87.40;;;;;;5048597;28;20049;-59
2023/01/10 04:52:08;;;;;;;3.83;1.40;;;6.20;87.50;;;;;;5050639;28;20045;-59
2023/01/10 04:54:35;;;;;;;2.90;1.33;;;6.20;87.50;;;;;;5045218;28;20044;-57
2023/01/10 04:57:01;;;;;;;4.97;1.45;;;6.20;87.50;;;;;;5045446;28;20587;-69
2023/01/10 04:59:30;;;;;;;5.15;1.42;;;6.20;87.60;;;;;;5044129;28;20051;-69
2023/01/10 05:01:57;;;;;;;3.88;1.35;;;6.30;87.60;;;;;;5043176;28;20067;-67
2023/01/10 05:04:24;;;;;;;3.17;0.98;;;6.30;87.70;;;;;;5041719;28;20056;-69
2023/01/10 05:06:51;;;;;;;4.13;1.10;;;6.30;87.60;;;;;;5039343;28;20068;-58
2023/01/10 05:09:18;;;;;;;3.80;1.23;;;6.30;87.50;;;;;;5042120;28;20121;-59
2023/01/10 05:11:45;;;;;;;3.33;1.20;;;6.30;87.40;;;;;;5041210;28;20045;-62
2023/01/10 05:14:12;;;;;;;3.47;1.20;;;6.30;87.20;;;;;;5043679;28;20064;-63
2023/01/10 05:16:40;;;;;;;4.13;1.10;;;6.30;87.30;;;;;;5040956;28;20519;-62
2023/01/10 05:19:07;;;;;;;3.30;1.27;;;6.30;87.10;;;;;;5052029;28;20053;-62
2023/01/10 05:21:35;;;;;;;3.10;1.02;;;6.30;87.10;;;;;;5053345;28;20049;-62
2023/01/10 05:24:01;;;;;;;3.85;1.10;;;6.30;87.10;;;;;;5048607;28;20496;-63
2023/01/10 05:26:28;;;;;;;3.15;0.90;;;6.30;87.10;;;;;;5054621;28;20052;-61
2023/01/10 05:28:55;;;;;;;2.92;1.05;;;6.30;87.10;;;;;;5061390;28;20055;-62
2023/01/10 05:31:22;;;;;;;2.38;1.02;;;6.30;87.10;;;;;;5046805;28;20056;-62
2023/01/10 05:33:51;;;;;;;2.45;0.95;;;6.30;87.00;;;;;;5036192;28;20048;-62
2023/01/10 05:36:19;;;;;;;3.83;0.70;;;6.30;87.10;;;;;;5039071;28;20052;-63
2023/01/10 05:38:46;;;;;;;2.75;0.77;;;6.20;87.20;;;;;;5038434;28;20061;-62
2023/01/10 05:41:12;;;;;;;1.52;0.70;;;6.20;87.10;;;;;;5040896;28;20053;-62
2023/01/10 05:43:40;;;;;;;6.70;1.90;;;6.20;87.10;;;;;;5040230;28;20471;-63
2023/01/10 05:46:07;;;;;;;5.25;1.42;;;6.20;87.00;;;;;;5041851;28;20498;-62
2023/01/10 05:48:34;;;;;;;4.05;1.02;;;6.30;87.00;;;;;;5035850;28;20049;-62
2023/01/10 05:51:02;;;;;;;3.90;1.33;;;6.20;86.90;;;;;;5038252;28;20053;-61
2023/01/10 05:53:29;;;;;;;2.80;0.82;;;6.20;86.70;;;;;;5039275;28;20045;-60
2023/01/10 05:55:57;;;;;;;3.78;0.88;;;6.20;86.60;;;;;;5041093;28;20049;-61
2023/01/10 05:58:25;;;;;;;3.55;0.80;;;6.20;86.70;;;;;;5040479;28;20045;-61
2023/01/10 06:00:52;;;;;;;2.08;0.70;;;6.20;86.60;;;;;;5029217;28;20053;-61
2023/01/10 06:03:19;;;;;;;1.38;0.60;;;6.20;86.60;;;;;;5041788;28;20041;-60
2023/01/10 06:05:47;;;;;;;3.35;0.70;;;6.20;86.60;;;;;;5039682;28;20059;-64
2023/01/10 06:08:15;;;;;;;3.80;0.93;;;6.20;86.50;;;;;;5046110;28;20131;-65
2023/01/10 06:10:43;;;;;;;2.67;0.88;;;6.20;86.50;;;;;;5049693;28;20044;-65
2023/01/10 06:13:11;;;;;;;5.03;0.93;;;6.20;86.40;;;;;;5044508;28;20052;-63
2023/01/10 06:15:38;;;;;;;2.30;0.70;;;6.20;86.40;;;;;;5049245;28;20049;-64
2023/01/10 06:18:05;;;;;;;3.35;1.30;;;6.20;86.20;;;;;;5050085;28;20052;-62
2023/01/10 06:20:32;;;;;;;3.45;1.00;;;6.10;86.40;;;;;;5041974;28;20045;-65
2023/01/10 06:23:01;;;;;;;3.55;0.80;;;6.10;86.30;;;;;;5040848;28;20049;-65
2023/01/10 06:25:29;;;;;;;3.88;0.80;;;6.20;86.20;;;;;;5040994;28;20053;-65
2023/01/10 06:27:56;;;;;;;2.67;0.85;;;6.10;86.20;;;;;;5040798;28;20056;-63
2023/01/10 06:30:24;;;;;;;6.97;1.00;;;6.10;86.00;;;;;;5037719;28;20515;-64
2023/01/10 06:32:51;;;;;;;2.95;0.95;;;6.10;86.00;;;;;;5038048;28;20045;-64
2023/01/10 06:35:19;;;;;;;8.68;1.13;;;6.10;85.90;;;;;;5038358;28;20049;-64
2023/01/10 06:37:46;;;;;;;3.05;0.88;;;6.10;85.90;;;;;;5037325;28;20404;-63
2023/01/10 06:40:14;;;;;;;2.40;1.00;;;6.00;85.80;;;;;;5037812;28;20041;-63
2023/01/10 06:42:42;;;;;;;6.28;1.00;;;6.00;86.00;;;;;;5039428;28;20041;-64
2023/01/10 06:45:10;;;;;;;6.32;1.10;;;6.00;85.90;;;;;;5030281;28;20486;-64
2023/01/10 06:47:37;;;;;;;5.45;1.27;;;5.90;85.80;;;;;;5037298;28;20053;-68
2023/01/10 06:50:05;;;;;;;3.72;0.80;;;6.00;85.90;;;;;;5046487;28;20091;-65
2023/01/10 06:52:32;;;;;;;7.03;1.20;;;6.00;85.80;;;;;;5038780;28;20168;-64
2023/01/10 06:54:59;;;;;;;4.97;1.25;;;5.90;85.80;;;;;;5046859;28;20075;-64
2023/01/10 06:57:28;;;;;;;7.45;1.65;;;5.80;85.70;;;;;;5041003;28;20506;-65
2023/01/10 06:59:56;;;;;;;4.60;1.20;;;5.80;86.00;;;;;;5035696;28;20065;-65
2023/01/10 07:02:23;;;;;;;4.47;1.33;;;5.80;85.90;;;;;;5046935;28;20045;-64
2023/01/10 07:04:50;;;;;;;5.88;1.17;;;5.80;86.10;;;;;;5043982;28;20041;-63
2023/01/10 07:07:17;;;;;;;4.45;1.40;;;5.90;85.90;;;;;;5051192;28;20045;-65
2023/01/10 07:09:45;;;;;;;5.72;1.45;;;5.80;85.60;;;;;;5047313;28;20136;-64
2023/01/10 07:12:12;;;;;;;6.00;1.42;;;5.80;85.90;;;;;;5048580;28;20056;-70
2023/01/10 07:14:38;;;;;;;4.00;1.33;;;5.80;85.80;;;;;;5048968;28;20052;-69
2023/01/10 07:17:07;;;;;;;4.85;1.35;;;5.80;85.90;;;;;;5037565;28;20041;-70
2023/01/10 07:19:33;;;;;;;7.13;1.60;;;5.80;85.90;;;;;;5038579;28;20049;-70
2023/01/10 07:22:00;;;;;;;4.20;1.20;;;5.80;85.90;;;;;;5035386;28;20184;-70
2023/01/10 07:24:28;;;;;;;6.15;1.52;;;5.80;85.90;;;;;;5036744;28;20059;-70
2023/01/10 07:26:56;;;;;;;6.05;1.50;;;5.90;85.90;;;;;;5038917;28;20057;-69
2023/01/10 07:29:22;;;;;;;2.67;1.05;;;5.80;86.00;;;;;;5038856;28;20494;-71
2023/01/10 07:31:49;;;;;;;3.80;1.45;;;5.90;86.00;;;;;;5035647;28;20056;-68
2023/01/10 07:34:18;;;;;;;6.95;1.45;;;5.90;86.00;;;;;;5038986;28;20041;-70
2023/01/10 07:36:45;;;;;;;3.25;1.33;;;5.90;86.00;;;;;;5035785;28;20046;-68
2023/01/10 07:39:12;;;;;;;4.18;1.25;;;5.90;86.20;;;;;;5034034;28;20122;-68
2023/01/10 07:41:39;;;;;;;4.68;1.45;;;5.90;86.30;;;;;;5036444;28;20689;-69
2023/01/10 07:44:06;;;;;;;7.28;1.60;;;5.80;86.30;;;;;;5035439;28;20079;-68
2023/01/10 07:46:33;;;;;;;4.85;1.42;;;5.80;86.20;;;;;;5037805;28;20056;-70
2023/01/10 07:49:00;;;;;;;4.30;1.13;;;5.70;86.30;;;;;;5033941;28;20059;-67
2023/01/10 07:51:29;;;;;;;4.88;1.40;;;5.80;86.30;;;;;;5037590;28;20733;-60
2023/01/10 07:53:56;;;;;;;6.25;1.48;;;5.70;86.30;;;;;;5034762;28;20056;-61
2023/01/10 07:56:24;;;;;;;4.75;1.25;;;5.70;86.30;;;;;;5039637;28;20052;-60
2023/01/10 07:58:51;;;;;;;7.20;1.58;;;5.70;86.40;;;;;;5039818;28;20461;-59
2023/01/10 08:01:19;;;;;;;6.07;1.60;;;5.70;86.40;;;;;;5037384;28;20049;-59
2023/01/10 08:03:46;;;;;;;9.95;2.13;;;5.80;86.30;;;;;;5035264;28;20045;-60
2023/01/10 08:06:13;;;;;;;4.68;1.83;;;5.80;86.30;;;;;;5036274;28;20484;-59
2023/01/10 08:08:41;;;;;;;5.45;1.98;;;5.80;86.50;;;;;;5035444;28;20414;-60
2023/01/10 08:11:08;;;;;;;5.68;2.38;;;5.80;86.40;;;;;;5038326;28;20057;-60
2023/01/10 08:13:35;;;;;;;5.15;1.77;;;5.80;86.40;;;;;;5035383;28;20060;-60
2023/01/10 08:16:05;;;;;;;5.45;1.65;;;5.90;86.40;;;;;;5034879;28;20042;-61
2023/01/10 08:18:32;;;;;;;6.60;2.10;;;6.00;86.20;;;;;;5035194;28;20053;-61
2023/01/10 08:20:59;;;;;;;5.40;1.70;;;5.90;86.20;;;;;;5036956;28;20045;-60
2023/01/10 08:23:26;;;;;;;4.43;1.30;;;6.00;86.20;;;;;;5035103;28;20061;-61
2023/01/10 08:25:57;;;;;;;6.18;1.88;;;6.00;86.10;;;;;;5033667;28;20079;-65
2023/01/10 08:28:25;;;;;;;6.50;1.95;;;6.00;86.20;;;;;;5038287;28;20185;-64
2023/01/10 08:30:54;;;;;;;5.63;1.70;;;6.00;86.00;;;;;;5034926;28;20049;-62
2023/01/10 08:33:22;;;;;;;7.15;2.08;;;6.10;86.00;;;;;;5032931;28;20048;-62
2023/01/10 08:35:49;;;;;;;4.22;1.60;;;6.10;86.00;;;;;;5038147;28;20540;-61
2023/01/10 08:38:16;;;;;;;7.32;2.00;;;6.10;86.00;;;;;;5041976;28;20056;-62
2023/01/10 08:40:43;;;;;;;7.22;2.00;;;6.10;86.00;;;;;;5040996;28;20053;-62
2023/01/10 08:43:12;;;;;;;5.25;1.92;;;6.10;85.90;;;;;;5040427;28;20073;-62
2023/01/10 08:45:39;;;;;;;9.55;3.40;;;6.10;86.00;;;;;;5040561;28;20045;-62
2023/01/10 08:48:08;;;;;;;7.05;3.20;;;6.10;86.10;;;;;;5043568;28;20049;-58
2023/01/10 08:50:35;;;;;;;7.15;3.30;;;6.10;85.90;;;;;;5039228;28;20073;-60
2023/01/10 08:53:02;;;;;;;15.55;7.28;;;6.10;86.10;;;;;;5041765;28;20041;-61
2023/01/10 08:55:30;;;;;;;18.23;9.68;;;6.10;86.10;;;;;;5040517;28;20152;-63
2023/01/10 08:57:59;;;;;;;16.60;7.68;;;6.10;86.00;;;;;;5041597;28;20049;-62
2023/01/10 09:00:28;;;;;;;13.73;5.93;;;6.20;85.80;;;;;;5041059;28;20049;-60
2023/01/10 09:02:55;;;;;;;14.07;7.22;;;6.20;86.00;;;;;;5037909;28;20049;-61
2023/01/10 09:05:25;;;;;;;12.00;5.75;;;6.20;86.00;;;;;;5039615;28;20057;-64
2023/01/10 09:07:53;;;;;;;12.13;5.88;;;6.20;85.80;;;;;;5040890;28;20045;-58
2023/01/10 09:10:21;;;;;;;11.70;6.45;;;6.20;85.90;;;;;;5034364;28;20048;-58
2023/01/10 09:12:58;;;;;;;10.23;5.82;;;6.30;85.90;;;;;;5038189;28;20418;-58
2023/01/10 09:15:28;;;;;;;8.90;4.95;;;6.30;85.90;;;;;;5035434;28;20049;-70
2023/01/10 09:17:56;;;;;;;8.13;4.88;;;6.30;85.70;;;;;;5041431;28;20077;-70
2023/01/10 09:20:24;;;;;;;9.27;4.18;;;6.30;85.80;;;;;;5045177;28;20494;-59
2023/01/10 09:22:51;;;;;;;8.45;2.88;;;6.30;85.60;;;;;;5051079;28;20056;-58
2023/01/10 09:25:18;;;;;;;8.38;2.90;;;6.30;85.60;;;;;;5047494;28;20132;-58
2023/01/10 09:27:45;;;;;;;9.52;2.40;;;6.30;85.50;;;;;;5045465;28;20049;-58
2023/01/10 09:30:13;;;;;;;7.07;1.80;;;6.30;85.50;;;;;;5047256;28;20513;-58
2023/01/10 09:32:41;;;;;;;7.20;1.73;;;6.30;85.40;;;;;;5045767;28;20063;-59
2023/01/10 09:35:08;;;;;;;3.70;1.38;;;6.30;85.40;;;;;;5038420;28;20048;-59
2023/01/10 09:37:36;;;;;;;4.80;1.73;;;6.40;85.30;;;;;;5038462;28;20049;-59
2023/01/10 09:40:06;;;;;;;4.95;1.52;;;6.40;85.40;;;;;;5039060;28;20088;-58
2023/01/10 09:42:54;;;;;;;7.45;1.63;;;6.40;85.40;;;;;;5039678;28;20052;-63
2023/01/10 09:45:26;;;;;;;6.18;1.70;;;6.40;85.40;;;;;;5036006;28;20128;-61
2023/01/10 09:48:01;;;;;;;7.15;1.65;;;6.50;85.20;;;;;;5040268;28;20064;-63
2023/01/10 09:50:37;;;;;;;8.65;1.80;;;6.50;85.10;;;;;;5038109;28;20094;-62
2023/01/10 09:53:10;;;;;;;5.65;1.77;;;6.50;85.20;;;;;;5040522;28;20052;-62
2023/01/10 09:55:38;;;;;;;6.20;1.58;;;6.50;85.10;;;;;;5041957;28;20056;-68
2023/01/10 09:58:11;;;;;;;5.05;1.83;;;6.50;85.10;;;;;;5055820;28;20049;-68
2023/01/10 10:00:42;;;;;;;5.53;1.60;;;6.50;85.10;;;;;;5046753;28;20069;-59
2023/01/10 10:03:22;;;;;;;6.97;1.73;;;6.50;85.00;;;;;;5051924;28;20065;-61
2023/01/10 10:05:49;;;;;;;7.88;1.50;;;6.50;85.10;;;;;;5046181;28;20080;-67
2023/01/10 10:08:19;;;;;;;7.60;1.70;;;6.50;85.00;;;;;;5046856;28;20935;-68
2023/01/10 10:11:05;;;;;;;6.63;1.58;;;6.50;85.00;;;;;;5047599;28;20049;-59
2023/01/10 10:13:46;;;;;;;6.47;1.42;;;6.50;84.80;;;;;;5040918;28;20060;-57
2023/01/10 10:16:26;;;;;;;5.32;1.45;;;6.60;84.90;;;;;;5039478;28;20049;-69
2023/01/10 10:19:05;;;;;;;11.18;1.83;;;6.60;84.90;;;;;;5038553;28;20604;-69
2023/01/10 10:21:41;;;;;;;8.57;1.80;;;6.60;84.80;;;;;;5038735;28;20499;-61
2023/01/10 10:24:30;;;;;;;6.75;1.65;;;6.60;84.80;;;;;;5040122;28;20542;-60
2023/01/10 10:27:07;;;;;;;9.25;1.85;;;6.60;84.70;;;;;;5034168;28;20061;-60
2023/01/10 10:30:10;;;;;;;7.25;1.77;;;6.70;84.70;;;;;;5036672;28;20044;-62
2023/01/10 10:32:53;;;;;;;7.75;1.98;;;6.70;84.60;;;;;;5048276;28;20049;-61
2023/01/10 10:35:27;;;;;;;7.28;2.10;;;6.70;84.60;;;;;;5052008;28;20049;-61
2023/01/10 10:37:58;;;;;;;8.95;2.72;;;6.70;84.60;;;;;;5037121;28;20373;-61
2023/01/10 10:40:32;;;;;;;9.68;3.67;;;6.70;84.50;;;;;;5036013;28;20136;-61
2023/01/10 10:43:10;;;;;;;12.95;4.57;;;6.70;84.40;;;;;;5037404;28;20142;-61
2023/01/10 10:45:44;;;;;;;12.43;4.40;;;6.70;84.50;;;;;;5035561;28;20045;-65
2023/01/10 10:48:16;;;;;;;14.05;4.78;;;6.80;84.50;;;;;;5046047;28;20141;-64
2023/01/10 10:50:51;;;;;;;9.45;3.78;;;6.90;84.40;;;;;;5044997;28;20059;-65
2023/01/10 10:53:19;;;;;;;14.75;4.13;;;6.90;84.30;;;;;;5052265;28;20045;-65
2023/01/10 10:55:46;;;;;;;9.48;2.85;;;6.90;84.30;;;;;;5045594;28;20080;-64
2023/01/10 10:58:14;;;;;;;13.88;2.78;;;6.90;84.30;;;;;;5049198;28;20127;-64
2023/01/10 11:00:42;;;;;;;11.15;2.60;;;6.90;84.10;;;;;;5046165;28;20045;-63
2023/01/10 11:03:22;;;;;;;7.97;2.20;;;6.90;84.00;;;;;;5047048;28;20059;-63
2023/01/10 11:05:51;;;;;;;5.10;2.13;;;6.90;84.00;;;;;;5045934;28;20067;-60
2023/01/10 11:08:20;;;;;;;10.77;2.15;;;6.90;83.70;;;;;;5045764;28;20492;-59
2023/01/10 11:10:50;;;;;;;11.93;2.50;;;6.90;83.90;;;;;;5038137;28;20037;-60
2023/01/10 11:13:25;;;;;;;6.28;1.90;;;6.90;83.80;;;;;;5071467;28;20559;-61
2023/01/10 11:15:52;;;;;;;7.68;2.15;;;7.00;83.60;;;;;;5046527;28;20045;-61
2023/01/10 11:18:21;;;;;;;4.80;1.85;;;7.00;83.60;;;;;;5045522;28;20046;-62
2023/01/10 11:20:52;;;;;;;7.90;1.83;;;7.10;83.60;;;;;;5051463;28;20057;-62
2023/01/10 11:23:24;;;;;;;5.28;1.95;;;7.10;83.50;;;;;;5043982;28;20413;-61
2023/01/10 11:25:51;;;;;;;10.02;2.00;;;7.10;83.50;;;;;;5038739;28;20045;-70
2023/01/10 11:28:22;;;;;;;9.98;1.88;;;7.20;83.20;;;;;;5038134;28;20055;-70
2023/01/10 11:30:51;;;;;;;6.97;1.85;;;7.20;83.30;;;;;;5034242;28;20049;-65
2023/01/10 11:33:22;;;;;;;6.80;1.73;;;7.20;83.10;;;;;;5036104;28;20502;-65
2023/01/10 11:36:06;;;;;;;6.38;1.90;;;7.20;82.90;;;;;;5035367;28;20049;-60
2023/01/10 11:38:33;;;;;;;6.90;1.95;;;7.20;82.80;;;;;;5052633;28;20049;-61
2023/01/10 11:41:02;;;;;;;5.40;1.40;;;7.20;82.40;;;;;;5036056;28;20655;-62
2023/01/10 11:43:33;;;;;;;5.78;1.40;;;7.20;82.10;;;;;;5034837;28;20037;-61
2023/01/10 11:46:02;;;;;;;7.18;1.50;;;7.20;81.70;;;;;;5034316;28;20053;-70
2023/01/10 11:48:42;;;;;;;5.82;1.42;;;7.20;81.50;;;;;;5037664;28;20060;-69
2023/01/10 11:51:21;;;;;;;6.53;1.70;;;7.20;81.30;;;;;;5047781;28;20158;-62
2023/01/10 11:53:50;;;;;;;8.60;2.00;;;7.20;81.30;;;;;;5059147;28;20067;-61
2023/01/10 11:56:25;;;;;;;12.00;2.80;;;7.20;81.50;;;;;;5044857;28;20041;-59
2023/01/10 11:58:53;;;;;;;5.10;1.75;;;7.20;81.50;;;;;;5046830;28;20053;-59
2023/01/10 12:01:30;;;;;;;7.72;1.98;;;7.20;81.30;;;;;;5045744;28;20064;-61
2023/01/10 12:03:57;;;;;;;5.65;2.10;;;7.20;81.00;;;;;;5047453;28;20049;-61
2023/01/10 12:06:27;;;;;;;7.78;1.60;;;7.20;81.00;;;;;;5046901;28;20049;-62
2023/01/10 12:08:57;;;;;;;5.97;1.70;;;7.20;81.20;;;;;;5047002;28;20073;-62
2023/01/10 12:11:28;;;;;;;6.93;2.28;;;7.20;81.00;;;;;;5048943;28;20404;-61
2023/01/10 12:13:57;;;;;;;10.18;2.35;;;7.20;80.80;;;;;;5041074;28;20067;-61
2023/01/10 12:16:26;;;;;;;8.48;2.28;;;7.20;81.00;;;;;;5039182;28;20060;-62
2023/01/10 12:18:56;;;;;;;10.50;2.50;;;7.20;80.80;;;;;;5041143;28;20061;-61
2023/01/10 12:21:37;;;;;;;5.65;1.77;;;7.20;80.90;;;;;;5042007;28;20058;-70
2023/01/10 12:24:12;;;;;;;10.75;2.55;;;7.20;80.40;;;;;;5041361;28;20053;-71
2023/01/10 12:26:39;;;;;;;6.93;1.70;;;7.20;80.50;;;;;;5040127;28;20049;-69
2023/01/10 12:29:11;;;;;;;5.35;1.48;;;7.20;80.40;;;;;;5041207;28;20407;-69
2023/01/10 12:31:40;;;;;;;7.63;1.70;;;7.20;80.30;;;;;;5039964;28;20053;-58
2023/01/10 12:34:15;;;;;;;8.30;2.08;;;7.20;80.10;;;;;;5042963;28;20618;-60
2023/01/10 12:36:51;;;;;;;6.75;1.48;;;7.20;79.90;;;;;;5049652;28;20489;-64
2023/01/10 12:39:23;;;;;;;8.13;1.95;;;7.20;80.20;;;;;;5046120;28;20060;-65
2023/01/10 12:44:44;;;;;;;7.57;1.67;;;7.30;80.20;;;;;;5047678;28;20475;-59
2023/01/10 12:47:22;;;;;;;8.23;1.70;;;7.20;80.00;;;;;;5047536;28;20144;-64
2023/01/10 12:49:54;;;;;;;9.23;1.55;;;7.20;79.90;;;;;;5041661;28;20053;-64
2023/01/10 12:52:33;;;;;;;8.38;1.90;;;7.20;79.60;;;;;;5056869;28;20053;-61
2023/01/10 12:55:01;;;;;;;8.80;1.65;;;7.20;79.90;;;;;;5059673;28;20058;-62
2023/01/10 12:57:31;;;;;;;7.93;2.35;;;7.30;79.90;;;;;;5051980;28;20053;-59
2023/01/10 13:00:02;;;;;;;9.32;2.22;;;7.20;80.10;;;;;;5048545;28;20045;-59
2023/01/10 13:02:38;;;;;;;9.32;2.35;;;7.20;80.10;;;;;;5047464;28;20131;-69
2023/01/10 13:05:07;;;;;;;10.70;1.65;;;7.20;79.90;;;;;;5047171;28;20055;-71
2023/01/10 13:07:37;;;;;;;8.40;1.55;;;7.20;79.60;;;;;;5049248;28;20045;-70
2023/01/10 13:10:05;;;;;;;5.40;1.98;;;7.20;79.80;;;;;;5046530;28;20759;-71
2023/01/10 13:12:36;;;;;;;7.75;2.03;;;7.20;79.70;;;;;;5045339;28;20058;-70
2023/01/10 13:15:09;;;;;;;8.15;1.75;;;7.20;79.80;;;;;;5050931;28;20049;-71
2023/01/10 13:17:43;;;;;;;5.05;1.67;;;7.20;79.70;;;;;;5050708;28;20397;-61
2023/01/10 13:20:40;;;;;;;6.20;1.45;;;7.20;79.90;;;;;;5042010;28;20455;-63
2023/01/10 13:23:21;;;;;;;7.40;1.48;;;7.20;79.50;;;;;;5033648;28;20055;-58
2023/01/10 13:25:55;;;;;;;9.05;1.60;;;7.20;79.90;;;;;;5038057;28;20056;-62